Terminal Aerodrome Forecast
Issued by NWS Omaha/Valley, NE

Home | Current Version | Previous Version | Text Only | Print | Product List | Glossary On
Versions: 1 2 3 4 5 6 7 8 9 10 11 12 13 14 15 16 17 18 19 20 21 22 23 24 25 26 27 28 29 30 31 32 33 34 35 36 37
000
FTUS43 KOAX 282320
TAFOFK
TAF
KOFK 282320Z 2900/2924 08004KT P6SM OVC090
      TEMPO 2908/2911 5SM -SN BR OVC025
     FM291100 02012KT 4SM -SN BR OVC015
      TEMPO 2915/2919 02015KT 1 1/2SM -SN OVC007
     FM291900 36015KT 4SM -SN BR OVC012=

USA.gov is the U.S. government's official web portal to all federal, state and local government web resources and services.